Hubbardston, Michigan
Current Conditions -  °F | °C
As of 9:54 PM on Tuesday 21 Oct 2014 (Local Time) from KY70 Reporting Station
Clear Clear  
Wind Chill: 37°   Ceiling: Unl
Heat Index: 40°   Visibility: 10mi
Dew Point: 35°   Wind: 5mph
Humidity: 81%   Direction: 90°E
Pressure: 30.24"   Gusts: NA
Location:  43.09°N, 84.84°W
Report Text: KY70 220154Z AUTO 09004KT 10SM CLR 05/02 A3024 RMK AO2 T00450015
Loading
Personal Weather Stations






























Interactive Weather Map
Tropical Storm Tracking
New forecast layout! Learn more

10-Day Weather Forecast

Advertisements
Track Severe Weather on mobile